AirNav  
 
 983 users online  

N25 Blue Heron Airport
Gallupville, New York, USA

GOING TO GALLUPVILLE?


FAA INFORMATION EFFECTIVE 04 JANUARY 2018

Location

FAA Identifier: N25
Lat/Long: 42-41-50.2720N / 074-11-58.4670W
42-41.837867N / 074-11.974450W
42.6972978 / -74.1995742
(estimated)
Elevation: 1200 ft. / 366 m (estimated)
Variation: 14W (1985)
From city: 3 miles NE of GALLUPVILLE, NY
Time zone: UTC -5 (UTC -4 during Daylight Saving Time)
Zip code: 12053

Airport Operations

Airport use: Open to the public
Activation date: 12/1985
Control tower: no
ARTCC: BOSTON CENTER
FSS: BURLINGTON FLIGHT SERVICE STATION
NOTAMs facility: BTV (NOTAM-D service available)
Attendance: APR-OCT DAWN-DUSK
Wind indicator: yes
Segmented circle: no

Airport Communications

CTAF: 122.9
WX AWOS-3 at SCH (15 nm NE): 119.275 (518-399-6586)
WX ASOS at ALB (18 nm E): PHONE 518-464-6423
WX AWOS-3 at NY0 (19 nm N): 119.225 (518-762-0322)

Nearby radio navigation aids

VOR radial/distance  VOR name  Freq  Var
ALBr273/17.7ALBANY VORTAC115.3013W

 
NDB name  Hdg/Dist  Freq  Var  ID
HUNTER245/15.035614WHEU .... . ..-
JOHNSTOWN176/19.052314WJJH .--- .--- ....
PHILMONT335/34.027213WPFH .--. ..-. ....

Airport Services

Parking: tiedowns

Runway Information

Runway 9/27

Dimensions: 2600 x 70 ft. / 792 x 21 m
Surface: turf, in good condition
RUNWAY 9  RUNWAY 27
Traffic pattern: leftleft
Obstructions: 17 ft. road, 69 ft. left of centerline68 ft. trees

Airport Ownership and Management from official FAA records

Ownership: Privately-owned
Owner: NICHOLAS J. VISCIO
686 KNOX CAVE ROAD
ALTAMONT, NY 12009
Phone 518-872-2638
Manager: NICHOLAS J. VISCIO
686 KNOX CAVE ROAD
ALTAMONT, NY 12009
Phone 518-872-2638

Airport Operational Statistics

Aircraft operations: 200/year *
100% transient general aviation
* for 12-month period ending 12 September 2016

Additional Remarks

CONTACT APRT MGR FOR FIELD CONDITIONS DURING WINTER AND APRIL-MAY
RWY 27; +40 - 100 FT TREES, ACROSS THLD.

Instrument Procedures

There are no published instrument procedures at N25.

Some nearby airports with instrument procedures:

KSCH - Schenectady County Airport (15 nm NE)
KALB - Albany International Airport (18 nm E)
4B0 - South Albany Airport (18 nm SE)
NY0 - Fulton County Airport (19 nm N)
5B2 - Saratoga County Airport (26 nm NE)
 
Loc | Ops | Rwys | IFR | FBO | Links
Com | Nav | Svcs | Stats | Notes


 
Area around N25 (Blue Heron Airport)
 
Road maps at: MapQuest Bing Google
 
Aerial photo
WARNING: Photo may not be current or correct
Aerial photo of N25 (Blue Heron Airport)
Photo by Nick Viscio
looking east.

Do you have a better or more recent aerial photo of Blue Heron Airport that you would like to share? If so, please send us your photo.

 
Sectional chart

 
Airport distance calculator
Flying to Blue Heron Airport? Find the distance to fly.

From to N25

Sunrise and sunset
Times for 22-Jan-2018
 Local
(UTC-5)
 Zulu
(UTC)
Morning civil twilight06:5111:51
Sunrise07:2112:21
Sunset16:5621:56
Evening civil twilight17:2622:26

Current date and time
Zulu (UTC)  23-Jan-2018 01:10:21
Local (UTC-5)  22-Jan-2018 20:10:21
 
METAR
KSCH 
15nm NE 
222150Z 08003KT 5SM BR OVC010 01/M02 A3013
KALB 
18nm E 
230051Z 00000KT 1 1/4SM -RA BR BKN005 OVC015 01/M01 A3010 RMK AO2 SLP197 BKN V SCT P0000 T00111006
KNY0 
19nm N 
230054Z AUTO 11007KT 1SM OVC002 01/01 A3005 RMK AO2
TAF
KALB 
18nm E 
221957Z 2220/2318 VRB05KT P6SM VCSH SCT008 OVC015 FM222100 11005KT 6SM -RA BR SCT008 OVC015 TEMPO 2221/2224 2SM -RA BR OVC008 FM230600 16007KT 2SM BR VCSH SCT006 OVC010 WS020/18030KT FM231500 16010KT 3SM -RA BR SCT006 OVC010
NOTAMs
Click for the latest NOTAMs
NOTAMs are issued by the DoD/FAA and will open in a separate window not controlled by AirNav.

 

 
 

Would you like to see your business listed on this page?

 If your business provides an interesting product or service to pilots, flight crews, aircraft, or users of the Blue Heron Airport, you should consider listing it here.  To start the listing process, click on the button below
 
Add a business
 

Other Pages about Blue Heron Airport

Update a link
 
Copyright © AirNav, LLC. All rights reserved. Privacy Policy  Contact